Time;durP1;ratioP1;P1;durP2;ratioP2;P2;SDS_P1;SDS_P2;PMS_P1;PMS_P2;Temp;Humidity;BMP_temperature;BMP_pressure;BME280_temperature;BME280_humidity;BME280_pressure;Samples;Min_cycle;Max_cycle;Signal;HPM_P1;HPM_P2
2024/04/01 00:01:41;;;;;;;23.00;7.40;;;;;;;10.67;61.71;99494.34;79935;1294;3013085;-60
2024/04/01 00:04:09;;;;;;;16.40;6.50;;;;;;;10.64;61.89;99493.67;78160;1298;3051871;-63
2024/04/01 00:06:35;;;;;;;19.30;7.40;;;;;;;10.56;61.82;99495.67;79466;1295;3013551;-63
2024/04/01 00:09:02;;;;;;;24.50;7.80;;;;;;;10.55;61.61;99494.02;79474;1294;3011202;-62
2024/04/01 00:11:30;;;;;;;23.10;8.30;;;;;;;10.45;61.68;99492.55;78414;1298;3026172;-63
2024/04/01 00:13:56;;;;;;;22.30;7.40;;;;;;;10.41;61.77;99493.12;79560;1296;3012865;-61
2024/04/01 00:16:23;;;;;;;23.30;8.40;;;;;;;10.43;61.26;99502.10;79681;1295;3011835;-61
2024/04/01 00:18:51;;;;;;;24.20;8.20;;;;;;;10.40;61.35;99503.13;78392;1295;3026549;-61
2024/04/01 00:21:17;;;;;;;19.10;7.30;;;;;;;10.42;61.10;99503.56;79477;1295;3013355;-62
2024/04/01 00:23:46;;;;;;;17.70;7.80;;;;;;;10.38;61.06;99501.66;79802;1298;3011805;-62
2024/04/01 00:26:14;;;;;;;24.80;8.00;;;;;;;10.35;61.12;99498.52;78284;1298;3048791;-61
2024/04/01 00:28:40;;;;;;;21.70;7.40;;;;;;;10.32;61.07;99501.45;79472;1301;3013449;-63
2024/04/01 00:31:07;;;;;;;21.00;7.70;;;;;;;10.32;61.17;99506.54;80063;1294;3011468;-61
2024/04/01 00:33:34;;;;;;;22.40;7.40;;;;;;;10.35;60.71;99503.75;78408;1298;3028250;-63
2024/04/01 00:36:01;;;;;;;19.10;6.80;;;;;;;10.24;61.04;99510.30;79851;1294;3019008;-61
2024/04/01 00:38:28;;;;;;;26.60;8.20;;;;;;;10.27;60.89;99512.95;79550;1298;3012907;-63
2024/04/01 00:40:56;;;;;;;22.50;7.70;;;;;;;10.30;60.85;99519.64;78842;1295;3024793;-60
2024/04/01 00:43:22;;;;;;;20.70;8.80;;;;;;;10.21;61.39;99514.70;79840;1298;3019274;-63
2024/04/01 00:45:49;;;;;;;24.10;8.50;;;;;;;10.20;61.35;99518.45;79641;1295;3012247;-67
2024/04/01 00:48:17;;;;;;;25.60;9.20;;;;;;;10.17;61.54;99528.64;78153;1296;3026518;-62
2024/04/01 00:50:46;;;;;;;21.50;8.30;;;;;;;10.11;61.80;99530.70;79660;1295;3013209;-62
2024/04/01 00:53:12;;;;;;;22.80;8.90;;;;;;;10.06;62.17;99526.80;79748;1300;3011937;-61
2024/04/01 00:55:41;;;;;;;28.10;8.70;;;;;;;10.11;61.87;99529.68;78320;1298;3049394;-61
2024/04/01 00:58:08;;;;;;;22.80;9.60;;;;;;;10.10;62.19;99538.44;79523;1294;3013060;-62
2024/04/01 01:00:35;;;;;;;28.40;9.80;;;;;;;10.04;62.21;99542.46;79999;1295;3011895;-63
2024/04/01 01:03:03;;;;;;;23.10;9.00;;;;;;;9.97;62.46;99551.12;78617;1298;3052803;-60
2024/04/01 01:05:30;;;;;;;28.00;9.00;;;;;;;9.97;62.58;99561.75;80003;1294;3013655;-61
2024/04/01 01:07:57;;;;;;;20.30;8.60;;;;;;;9.91;62.66;99564.20;79670;1294;3013132;-62
2024/04/01 01:10:25;;;;;;;26.10;8.00;;;;;;;9.91;62.79;99554.03;78780;1298;3049456;-57
2024/04/01 01:12:51;;;;;;;26.20;8.60;;;;;;;9.93;62.89;99549.08;79755;1295;3012985;-61
2024/04/01 01:15:18;;;;;;;20.20;9.00;;;;;;;9.90;63.23;99549.38;79554;1295;3012028;-67
2024/04/01 01:17:46;;;;;;;18.20;8.40;;;;;;;9.93;63.12;99562.51;78448;1301;3026221;-62
2024/04/01 01:20:12;;;;;;;27.40;9.90;;;;;;;9.87;63.51;99564.60;79873;1298;3020917;-62
2024/04/01 01:22:40;;;;;;;30.40;9.50;;;;;;;9.85;63.73;99562.64;79702;1295;3011516;-59
2024/04/01 01:25:08;;;;;;;26.30;9.80;;;;;;;9.86;64.02;99561.17;78747;1298;3048830;-60
2024/04/01 01:27:40;;;;;;;29.00;11.00;;;;;;;9.76;64.45;99565.23;79963;1296;3013352;-63
2024/04/01 01:30:15;;;;;;;28.80;9.80;;;;;;;9.75;64.61;99560.04;78401;1295;3052009;-62
2024/04/01 01:32:46;;;;;;;31.50;9.70;;;;;;;9.69;64.89;99565.95;78842;1298;3013185;-62
2024/04/01 01:35:20;;;;;;;30.90;10.10;;;;;;;9.64;65.24;99563.80;79451;1298;3013535;-60
2024/04/01 01:37:48;;;;;;;29.90;10.50;;;;;;;9.64;65.23;99566.90;78311;1296;3070013;-64
2024/04/01 01:40:15;;;;;;;27.90;10.40;;;;;;;9.62;65.18;99568.30;79750;1295;3012726;-62
2024/04/01 01:42:42;;;;;;;25.60;10.60;;;;;;;9.64;64.99;99569.73;79477;1295;3013579;-62
2024/04/01 01:45:10;;;;;;;22.80;9.40;;;;;;;9.67;65.07;99567.62;78196;1295;3053225;-65
2024/04/01 01:47:37;;;;;;;28.60;10.10;;;;;;;9.65;65.02;99568.98;79699;1295;3013147;-64
2024/04/01 01:50:06;;;;;;;25.20;9.60;;;;;;;9.62;65.15;99574.92;79899;1298;3011716;-62
2024/04/01 01:52:34;;;;;;;26.30;8.80;;;;;;;9.59;65.22;99571.21;78859;1295;3068391;-68
2024/04/01 01:55:01;;;;;;;26.00;9.50;;;;;;;9.55;65.60;99570.58;79825;1295;3019602;-62
2024/04/01 01:57:28;;;;;;;25.30;8.90;;;;;;;9.56;65.42;99566.46;79685;1298;3011513;-63
2024/04/01 01:59:55;;;;;;;26.80;9.40;;;;;;;9.58;65.53;99564.61;78386;1298;3026604;-61
2024/04/01 02:02:22;;;;;;;21.50;8.90;;;;;;;9.58;65.38;99562.23;79974;1298;3020649;-62
2024/04/01 02:04:49;;;;;;;21.70;9.80;;;;;;;9.54;65.72;99566.05;79366;1298;3011491;-65
2024/04/01 02:07:16;;;;;;;29.80;11.10;;;;;;;9.53;65.64;99573.13;78572;1296;3027424;-62
2024/04/01 02:09:43;;;;;;;29.30;11.90;;;;;;;9.58;65.51;99568.31;79401;1295;3013252;-61
2024/04/01 02:12:10;;;;;;;33.10;11.00;;;;;;;9.59;65.71;99567.20;79369;1295;3012962;-61
2024/04/01 02:14:38;;;;;;;28.40;11.60;;;;;;;9.52;65.95;99568.27;78571;1295;3025718;-60
2024/04/01 02:17:05;;;;;;;27.00;9.20;;;;;;;9.50;66.14;99568.21;79808;1298;3013737;-63
2024/04/01 02:19:31;;;;;;;18.60;8.00;;;;;;;9.48;66.00;99562.58;79294;1298;3012760;-64
2024/04/01 02:21:59;;;;;;;18.20;7.70;;;;;;;9.47;66.15;99552.66;78661;1295;3027372;-61
2024/04/01 02:24:26;;;;;;;19.80;7.00;;;;;;;9.50;65.81;99546.73;79601;1295;3013206;-60
2024/04/01 02:26:53;;;;;;;20.50;7.30;;;;;;;9.58;65.61;99549.06;79344;1298;3011634;-64
2024/04/01 02:29:21;;;;;;;18.70;6.80;;;;;;;9.57;65.77;99551.38;78417;1298;3053672;-64
2024/04/01 02:31:51;;;;;;;15.80;6.00;;;;;;;9.49;66.05;99557.42;79440;1301;3013158;-62
2024/04/01 02:34:20;;;;;;;16.20;5.90;;;;;;;9.47;66.20;99561.23;78912;1294;3013237;-61
2024/04/01 02:36:46;;;;;;;11.60;5.10;;;;;;;9.40;66.51;99559.30;79471;1298;3019325;-63
2024/04/01 02:39:19;;;;;;;15.10;5.30;;;;;;;9.39;66.82;99560.10;79403;1298;3011659;-60
2024/04/01 02:41:47;;;;;;;13.40;5.00;;;;;;;9.36;66.69;99547.65;78199;1298;3057045;-61
2024/04/01 02:44:14;;;;;;;10.30;4.40;;;;;;;9.36;66.95;99542.05;79759;1295;3013089;-62
2024/04/01 02:46:41;;;;;;;9.40;4.70;;;;;;;9.32;67.21;99539.98;79370;1298;3011704;-62
2024/04/01 02:49:09;;;;;;;11.10;4.50;;;;;;;9.39;66.97;99535.77;78361;1295;3051913;-61
2024/04/01 02:51:37;;;;;;;10.60;3.90;;;;;;;9.42;66.65;99531.93;79704;1298;3013957;-61
2024/04/01 02:54:04;;;;;;;11.00;4.00;;;;;;;9.49;66.47;99524.20;79672;1298;3011379;-61
2024/04/01 02:56:33;;;;;;;6.10;3.50;;;;;;;9.54;66.06;99524.11;78116;1294;3056067;-60
2024/04/01 02:59:09;;;;;;;10.50;3.70;;;;;;;9.55;65.80;99525.10;79437;1295;3014649;-61
2024/04/01 03:01:40;;;;;;;9.80;3.70;;;;;;;9.59;65.66;99524.02;78223;1294;3049238;-60
2024/04/01 03:04:06;;;;;;;9.70;3.60;;;;;;;9.60;65.49;99519.77;79535;1294;3011648;-61
2024/04/01 03:06:36;;;;;;;8.70;3.30;;;;;;;9.67;65.02;99515.52;78976;1298;3011660;-63
2024/04/01 03:09:04;;;;;;;7.20;3.20;;;;;;;9.71;64.58;99513.16;79424;1294;3012843;-61
2024/04/01 03:11:31;;;;;;;7.20;3.40;;;;;;;9.70;64.45;99505.52;79654;1295;3013275;-61
2024/04/01 03:13:59;;;;;;;8.00;3.50;;;;;;;9.66;64.56;99503.68;78382;1295;3049315;-61
2024/04/01 03:16:26;;;;;;;6.30;3.20;;;;;;;9.66;64.58;99500.72;79486;1295;3013034;-64
2024/04/01 03:18:52;;;;;;;7.80;3.20;;;;;;;9.65;64.44;99497.08;79537;1298;3011568;-61
2024/04/01 03:21:20;;;;;;;7.70;3.10;;;;;;;9.65;64.43;99497.44;78395;1298;3028812;-62
2024/04/01 03:23:48;;;;;;;9.50;3.20;;;;;;;9.62;64.41;99496.21;79567;1294;3019232;-62
2024/04/01 03:26:14;;;;;;;8.70;3.30;;;;;;;9.64;64.23;99496.29;79452;1296;3011669;-65
2024/04/01 03:28:42;;;;;;;7.40;3.40;;;;;;;9.64;64.05;99492.76;78076;1294;3049092;-62
2024/04/01 03:31:11;;;;;;;8.20;3.40;;;;;;;9.59;64.04;99488.00;79595;1295;3013660;-60
2024/04/01 03:33:37;;;;;;;9.30;3.00;;;;;;;9.66;63.65;99486.38;79475;1296;3011887;-62
2024/04/01 03:36:05;;;;;;;8.40;2.90;;;;;;;9.72;63.16;99493.15;78254;1295;3052624;-62
2024/04/01 03:38:33;;;;;;;9.50;3.60;;;;;;;9.74;62.90;99497.30;79529;1298;3012973;-61
2024/04/01 03:40:59;;;;;;;10.90;4.30;;;;;;;9.80;62.11;99494.70;79816;1295;3013377;-60
2024/04/01 03:43:28;;;;;;;8.50;3.60;;;;;;;9.75;61.59;99490.79;78269;1295;3028429;-60
2024/04/01 03:46:01;;;;;;;16.90;3.90;;;;;;;9.73;61.13;99492.92;79469;1298;3012838;-63
2024/04/01 03:48:31;;;;;;;8.50;4.00;;;;;;;9.77;60.82;99488.02;78116;1298;3052023;-63
2024/04/01 03:50:58;;;;;;;11.30;5.20;;;;;;;9.82;60.08;99488.26;79422;1294;3012964;-60
2024/04/01 03:53:24;;;;;;;12.80;5.30;;;;;;;9.79;59.52;99487.73;79339;1294;3011223;-61
2024/04/01 03:55:52;;;;;;;10.80;4.70;;;;;;;9.85;58.96;99487.91;78020;1295;3056123;-62
2024/04/01 03:58:19;;;;;;;17.60;6.10;;;;;;;9.91;58.88;99483.73;79381;1295;3012858;-61
2024/04/01 04:00:45;;;;;;;16.90;6.60;;;;;;;10.00;58.50;99491.59;79411;1295;3013554;-63
2024/04/01 04:03:13;;;;;;;16.00;6.00;;;;;;;10.04;58.00;99493.14;78256;1298;3027869;-62
2024/04/01 04:05:40;;;;;;;16.60;6.60;;;;;;;10.15;57.11;99489.71;79428;1295;3013480;-62
2024/04/01 04:08:06;;;;;;;18.90;7.60;;;;;;;10.23;56.43;99484.17;79385;1298;3011709;-62
2024/04/01 04:10:34;;;;;;;20.90;7.40;;;;;;;10.33;55.40;99486.02;78262;1298;3026387;-63
2024/04/01 04:13:01;;;;;;;20.30;7.80;;;;;;;10.41;55.17;99500.48;79433;1295;3013235;-61
2024/04/01 04:15:27;;;;;;;20.00;7.70;;;;;;;10.48;54.34;99504.41;79403;1295;3012575;-62
2024/04/01 04:17:55;;;;;;;33.40;9.10;;;;;;;10.56;53.94;99508.66;78345;1295;3028820;-61
2024/04/01 04:20:22;;;;;;;25.30;7.50;;;;;;;10.67;53.29;99506.44;79437;1295;3013836;-63
2024/04/01 04:22:48;;;;;;;29.50;7.90;;;;;;;10.81;52.60;99493.89;79643;1298;3011414;-60
2024/04/01 04:25:16;;;;;;;22.90;8.50;;;;;;;10.93;51.81;99495.77;78578;1298;3029062;-62
2024/04/01 04:27:43;;;;;;;24.20;8.60;;;;;;;10.96;51.22;99503.64;79839;1295;3013150;-64
2024/04/01 04:30:12;;;;;;;25.10;8.20;;;;;;;11.05;51.27;99500.09;79524;1294;3011663;-62
2024/04/01 04:32:40;;;;;;;24.20;8.40;;;;;;;11.16;50.65;99501.86;78112;1295;3052960;-62
2024/04/01 04:35:13;;;;;;;18.90;7.10;;;;;;;11.24;49.91;99500.67;79459;1298;3013163;-59
2024/04/01 04:37:41;;;;;;;19.70;6.70;;;;;;;11.33;48.74;99499.63;78039;1298;3052576;-65
2024/04/01 04:40:14;;;;;;;20.20;7.10;;;;;;;11.44;47.76;99513.13;79332;1295;3012929;-61
2024/04/01 04:42:42;;;;;;;19.50;6.70;;;;;;;11.57;47.39;99519.84;78180;1300;3051900;-61
2024/04/01 04:45:08;;;;;;;17.10;6.90;;;;;;;11.61;47.67;99525.20;79806;1298;3021328;-61
2024/04/01 04:47:36;;;;;;;29.80;8.50;;;;;;;11.56;48.21;99531.63;79509;1295;3011818;-61
2024/04/01 04:50:05;;;;;;;26.50;9.00;;;;;;;11.55;47.60;99530.13;78139;1299;3069728;-62
2024/04/01 04:52:31;;;;;;;34.60;10.90;;;;;;;11.54;47.75;99523.51;79423;1295;3012927;-64
2024/04/01 04:54:58;;;;;;;35.00;9.40;;;;;;;11.60;47.01;99515.95;79411;1294;3012831;-63
2024/04/01 04:57:26;;;;;;;34.00;10.40;;;;;;;11.70;46.67;99506.20;78120;1298;3053285;-63
2024/04/01 04:59:52;;;;;;;37.40;10.60;;;;;;;11.77;46.05;99501.02;79524;1298;3013568;-62
2024/04/01 05:02:19;;;;;;;34.30;10.10;;;;;;;11.89;46.23;99499.17;79612;1295;3011741;-63
2024/04/01 05:04:47;;;;;;;31.90;9.60;;;;;;;11.98;46.83;99496.18;78249;1295;3025841;-63
2024/04/01 05:07:14;;;;;;;30.60;9.50;;;;;;;11.96;46.51;99500.13;79558;1298;3013710;-63
2024/04/01 05:09:41;;;;;;;26.80;8.50;;;;;;;12.00;46.84;99489.01;79526;1294;3012345;-65
2024/04/01 05:12:09;;;;;;;29.60;8.60;;;;;;;11.99;46.65;99476.96;78146;1295;3053978;-61
2024/04/01 05:14:36;;;;;;;24.20;7.40;;;;;;;12.04;46.84;99468.89;79364;1298;3016202;-65
2024/04/01 05:17:02;;;;;;;23.50;8.10;;;;;;;12.10;47.04;99460.96;79862;1295;3012890;-63
2024/04/01 05:19:30;;;;;;;24.40;8.60;;;;;;;12.14;46.41;99447.36;78330;1295;3027765;-61
2024/04/01 05:21:57;;;;;;;23.30;8.00;;;;;;;12.16;45.95;99443.13;79655;1295;3011675;-63
2024/04/01 05:24:24;;;;;;;23.50;7.60;;;;;;;12.22;45.49;99435.20;79527;1298;3012814;-61
2024/04/01 05:26:52;;;;;;;17.90;5.80;;;;;;;12.25;45.14;99430.26;78888;1295;3028635;-63
2024/04/01 05:29:19;;;;;;;17.60;5.10;;;;;;;12.28;44.58;99427.77;79553;1302;3013035;-62
2024/04/01 05:31:45;;;;;;;11.70;4.20;;;;;;;12.39;43.87;99427.04;80180;1295;3011403;-62
2024/04/01 05:34:13;;;;;;;9.80;3.30;;;;;;;12.48;43.06;99430.66;78280;1298;3068582;-65
2024/04/01 05:36:41;;;;;;;17.60;4.10;;;;;;;12.57;42.75;99432.82;79463;1295;3012815;-62
2024/04/01 05:39:07;;;;;;;6.00;1.90;;;;;;;12.68;41.44;99431.40;79513;1298;3011589;-60
2024/04/01 05:41:35;;;;;;;20.10;2.30;;;;;;;12.77;41.12;99435.84;78454;1298;3028658;-62
2024/04/01 05:44:02;;;;;;;9.00;1.70;;;;;;;12.87;40.53;99438.48;79548;1298;3012958;-63
2024/04/01 05:46:29;;;;;;;5.30;1.50;;;;;;;12.97;39.79;99447.25;79323;1301;3014108;-63
2024/04/01 05:48:57;;;;;;;4.10;1.40;;;;;;;13.05;39.69;99454.58;80078;1295;3026441;-62
2024/04/01 05:51:23;;;;;;;4.90;1.20;;;;;;;13.15;38.65;99464.79;81184;1294;3012872;-62
2024/04/01 05:53:50;;;;;;;4.50;1.50;;;;;;;13.25;37.88;99464.46;80208;1294;3011513;-62
2024/04/01 05:56:18;;;;;;;4.30;1.60;;;;;;;13.29;36.98;99460.27;78223;1298;3026215;-62
2024/04/01 05:58:45;;;;;;;10.20;2.30;;;;;;;13.34;36.30;99459.27;79462;1298;3012951;-62
2024/04/01 06:01:11;;;;;;;7.90;2.80;;;;;;;13.43;36.06;99449.97;79641;1295;3013599;-62
2024/04/01 06:03:40;;;;;;;6.00;3.00;;;;;;;13.56;35.85;99442.86;78388;1296;3024928;-62
2024/04/01 06:06:07;;;;;;;6.80;2.60;;;;;;;13.65;35.62;99441.34;79724;1295;3013515;-60
2024/04/01 06:08:33;;;;;;;15.50;5.50;;;;;;;13.76;36.03;99440.20;79605;1295;3013423;-61
2024/04/01 06:11:01;;;;;;;6.80;2.80;;;;;;;13.87;36.40;99441.29;78741;1298;3026428;-60
2024/04/01 06:13:28;;;;;;;9.60;3.90;;;;;;;14.00;36.06;99439.30;80068;1298;3013667;-64
2024/04/01 06:15:55;;;;;;;14.60;3.20;;;;;;;14.11;35.44;99433.52;79423;1298;3011657;-61
2024/04/01 06:18:23;;;;;;;12.20;3.90;;;;;;;14.16;35.94;99431.02;78438;1298;3028571;-63
2024/04/01 06:20:50;;;;;;;11.90;3.40;;;;;;;14.26;36.05;99432.79;79514;1295;3012499;-62
2024/04/01 06:23:17;;;;;;;10.50;2.50;;;;;;;14.38;35.54;99421.23;79633;1294;3011826;-62
2024/04/01 06:25:46;;;;;;;12.70;2.70;;;;;;;14.37;34.49;99426.99;78519;1294;3051935;-61
2024/04/01 06:28:13;;;;;;;8.10;2.40;;;;;;;14.50;35.31;99426.50;79445;1295;3011686;-60
2024/04/01 06:30:39;;;;;;;6.30;2.10;;;;;;;14.58;35.01;99428.52;79487;1298;3011554;-63
2024/04/01 06:33:07;;;;;;;5.60;2.10;;;;;;;14.69;34.89;99427.33;78391;1295;3068837;-62
2024/04/01 06:35:34;;;;;;;7.60;2.20;;;;;;;14.80;34.92;99425.80;79399;1299;3013273;-62
2024/04/01 06:38:01;;;;;;;6.60;1.90;;;;;;;14.87;34.32;99431.95;79362;1298;3011662;-62
2024/04/01 06:40:29;;;;;;;8.70;1.90;;;;;;;14.91;34.18;99429.66;78172;1295;3028281;-62
2024/04/01 06:42:55;;;;;;;10.40;1.70;;;;;;;15.02;33.94;99438.49;79537;1298;3018326;-62
2024/04/01 06:45:22;;;;;;;10.50;2.30;;;;;;;15.10;33.57;99433.49;79563;1298;3013253;-64
2024/04/01 06:47:50;;;;;;;4.20;1.90;;;;;;;15.30;33.87;99436.51;79187;1294;3028499;-61
2024/04/01 06:50:16;;;;;;;8.00;1.50;;;;;;;15.40;33.84;99437.23;79689;1294;3013699;-63
2024/04/01 06:52:43;;;;;;;4.60;1.60;;;;;;;15.48;33.87;99440.11;79463;1295;3013301;-62
2024/04/01 06:55:11;;;;;;;3.40;1.20;;;;;;;15.61;33.69;99438.52;78234;1295;3026517;-62
2024/04/01 06:57:40;;;;;;;3.10;1.30;;;;;;;15.68;33.23;99431.94;79465;1298;3020623;-64
2024/04/01 07:00:08;;;;;;;8.10;1.10;;;;;;;15.80;33.09;99429.96;79466;1298;3011809;-62
2024/04/01 07:02:36;;;;;;;3.70;1.30;;;;;;;15.87;32.97;99429.02;78149;1298;3069640;-62
2024/04/01 07:05:04;;;;;;;4.20;1.20;;;;;;;15.98;33.30;99429.70;79619;1295;3013248;-62
2024/04/01 07:07:30;;;;;;;4.50;1.20;;;;;;;16.11;33.19;99434.48;79562;1295;3011660;-61
2024/04/01 07:09:58;;;;;;;4.80;1.50;;;;;;;16.19;33.03;99436.39;78310;1295;3053363;-62
2024/04/01 07:12:25;;;;;;;5.10;1.10;;;;;;;16.15;33.28;99437.52;79478;1294;3018377;-63
2024/04/01 07:14:52;;;;;;;4.20;1.00;;;;;;;16.18;33.13;99435.63;79293;1295;3011588;-63
2024/04/01 07:17:20;;;;;;;2.80;1.00;;;;;;;16.33;33.38;99431.73;78368;1294;3028371;-62
2024/04/01 07:19:46;;;;;;;4.90;1.20;;;;;;;16.41;33.06;99428.04;79323;1294;3015308;-63
2024/04/01 07:22:13;;;;;;;7.70;1.50;;;;;;;16.46;33.06;99416.11;79345;1298;3011726;-64
2024/04/01 07:24:41;;;;;;;6.10;1.00;;;;;;;16.52;33.11;99421.75;78143;1295;3026147;-64
2024/04/01 07:27:07;;;;;;;6.20;1.00;;;;;;;16.53;32.71;99419.41;79745;1298;3019147;-64
2024/04/01 07:29:34;;;;;;;11.70;1.60;;;;;;;16.60;33.02;99412.96;79222;1298;3011883;-64
2024/04/01 07:32:02;;;;;;;6.30;1.50;;;;;;;16.71;32.79;99412.20;78568;1298;3026565;-63
2024/04/01 07:34:29;;;;;;;5.80;1.40;;;;;;;16.88;32.84;99419.02;79608;1295;3019089;-63
2024/04/01 07:36:56;;;;;;;6.10;1.30;;;;;;;16.98;32.70;99412.87;79662;1298;3011202;-64
2024/04/01 07:39:24;;;;;;;10.00;1.50;;;;;;;17.17;32.77;99409.85;78618;1295;3028472;-62
2024/04/01 07:41:50;;;;;;;11.80;1.40;;;;;;;17.32;32.54;99413.61;79606;1295;3018360;-65
2024/04/01 07:44:17;;;;;;;6.30;1.60;;;;;;;17.41;32.29;99416.84;79544;1295;3013247;-63
2024/04/01 07:46:45;;;;;;;10.10;1.70;;;;;;;17.45;32.40;99420.52;78089;1298;3026278;-64
2024/04/01 07:49:12;;;;;;;9.50;1.40;;;;;;;17.41;32.47;99416.82;79493;1294;3013228;-65
2024/04/01 07:51:38;;;;;;;6.30;1.40;;;;;;;17.56;32.49;99415.34;79367;1298;3013022;-63
2024/04/01 07:54:06;;;;;;;5.10;1.80;;;;;;;17.71;32.57;99418.19;78276;1295;3026319;-64
2024/04/01 07:56:33;;;;;;;9.10;1.60;;;;;;;17.77;32.51;99411.30;79390;1295;3013050;-64
2024/04/01 07:59:00;;;;;;;8.00;1.50;;;;;;;17.84;32.37;99412.50;79691;1298;3012034;-64
2024/04/01 08:01:29;;;;;;;9.30;1.70;;;;;;;17.88;32.77;99404.98;78234;1296;3026491;-63
2024/04/01 08:03:56;;;;;;;12.60;1.70;;;;;;;18.11;32.48;99395.48;79456;1296;3013240;-65
2024/04/01 08:06:23;;;;;;;11.50;1.90;;;;;;;18.26;32.00;99399.77;79653;1295;3011475;-64
2024/04/01 08:08:51;;;;;;;8.30;1.70;;;;;;;18.33;32.01;99403.29;78365;1298;3053315;-64
2024/04/01 08:11:17;;;;;;;6.00;1.60;;;;;;;18.27;32.11;99400.41;79414;1295;3012804;-65
2024/04/01 08:13:44;;;;;;;9.80;2.80;;;;;;;18.29;31.94;99401.10;79282;1295;3013384;-65
2024/04/01 08:16:12;;;;;;;17.60;3.40;;;;;;;18.39;32.09;99398.34;78292;1298;3028969;-64
2024/04/01 08:18:39;;;;;;;10.90;2.30;;;;;;;18.55;31.86;99395.09;79553;1295;3014190;-63
2024/04/01 08:21:05;;;;;;;9.70;2.70;;;;;;;18.66;32.05;99395.24;79528;1294;3011613;-61
2024/04/01 08:23:33;;;;;;;8.90;2.30;;;;;;;18.67;31.31;99390.02;78438;1298;3028699;-63
2024/04/01 08:26:00;;;;;;;9.40;2.50;;;;;;;18.76;31.03;99395.90;79610;1298;3013695;-63
2024/04/01 08:28:27;;;;;;;24.40;3.20;;;;;;;18.77;31.31;99384.30;79324;1298;3013939;-65
2024/04/01 08:30:55;;;;;;;12.20;2.80;;;;;;;18.85;31.23;99380.13;78824;1298;3026518;-63
2024/04/01 08:33:22;;;;;;;14.40;2.60;;;;;;;19.00;31.48;99373.77;79945;1295;3014001;-64
2024/04/01 08:35:48;;;;;;;8.70;2.60;;;;;;;19.14;31.23;99369.23;80654;1296;3011638;-65
2024/04/01 08:38:16;;;;;;;11.00;2.30;;;;;;;19.28;31.74;99363.19;78672;1298;3026417;-64
2024/04/01 08:41:04;;;;;;;19.70;3.70;;;;;;;19.36;31.41;99363.33;79423;1298;3012958;-63
2024/04/01 08:43:35;;;;;;;11.80;2.80;;;;;;;19.40;31.19;99361.48;78363;1294;3052951;-64
2024/04/01 08:46:05;;;;;;;10.70;2.70;;;;;;;19.45;31.33;99353.38;79554;1298;3011648;-63
2024/04/01 08:48:33;;;;;;;15.40;3.00;;;;;;;19.55;31.50;99350.38;78285;1298;3051876;-62
2024/04/01 08:51:03;;;;;;;19.00;3.60;;;;;;;19.81;31.51;99354.59;79306;1300;3013683;-62
2024/04/01 08:53:48;;;;;;;10.80;3.40;;;;;;;20.07;31.55;99354.46;79083;1295;3011557;-63
2024/04/01 08:56:18;;;;;;;14.50;3.00;;;;;;;20.11;31.60;99358.48;78256;1298;3054068;-61
2024/04/01 08:58:45;;;;;;;13.90;3.50;;;;;;;20.31;31.65;99348.11;79414;1296;3011663;-62
2024/04/01 09:01:14;;;;;;;14.70;2.80;;;;;;;20.50;31.28;99350.06;79256;1298;3013125;-62
2024/04/01 09:03:41;;;;;;;15.50;2.80;;;;;;;20.56;31.01;99350.52;79420;1301;3020592;-63
2024/04/01 09:06:08;;;;;;;12.80;2.80;;;;;;;20.55;30.91;99343.32;80675;1295;3012805;-62
2024/04/01 09:08:35;;;;;;;12.00;2.70;;;;;;;20.72;30.88;99343.38;79379;1295;3026440;-62
2024/04/01 09:11:02;;;;;;;22.30;3.10;;;;;;;20.64;31.27;99346.83;80171;1298;3013015;-63
2024/04/01 09:13:31;;;;;;;14.60;2.80;;;;;;;20.66;31.40;99339.87;79552;1295;3011709;-61
2024/04/01 09:15:59;;;;;;;14.40;2.80;;;;;;;20.65;31.10;99341.43;78332;1298;3052691;-62
2024/04/01 09:18:29;;;;;;;14.40;3.30;;;;;;;20.72;31.39;99334.66;79394;1301;3013007;-61
2024/04/01 09:20:58;;;;;;;19.70;3.20;;;;;;;20.81;31.39;99333.85;79121;1298;3012032;-62
2024/04/01 09:23:25;;;;;;;18.80;3.60;;;;;;;20.80;31.34;99337.13;79443;1294;3013553;-61
2024/04/01 09:25:51;;;;;;;18.50;3.30;;;;;;;20.62;31.60;99331.23;79364;1298;3011829;-61
2024/04/01 09:28:19;;;;;;;14.70;3.20;;;;;;;20.71;31.49;99327.04;78654;1298;3029057;-62
2024/04/01 09:30:46;;;;;;;13.50;3.80;;;;;;;21.01;31.41;99330.66;79436;1298;3013382;-63
2024/04/01 09:33:13;;;;;;;16.90;3.40;;;;;;;20.91;31.36;99329.73;79546;1298;3011937;-63
2024/04/01 09:35:41;;;;;;;16.20;3.60;;;;;;;21.16;31.36;99329.49;78276;1301;3026286;-59
2024/04/01 09:38:08;;;;;;;17.80;3.40;;;;;;;21.16;31.10;99329.22;79535;1298;3013158;-64
2024/04/01 09:40:34;;;;;;;14.40;3.70;;;;;;;21.25;30.84;99327.73;79868;1295;3011541;-63
2024/04/01 09:43:02;;;;;;;16.70;3.80;;;;;;;21.21;30.88;99325.82;78489;1298;3026165;-61
2024/04/01 09:45:29;;;;;;;20.20;4.00;;;;;;;21.44;30.50;99322.54;79706;1298;3011775;-64
2024/04/01 09:47:56;;;;;;;24.80;4.40;;;;;;;21.55;30.42;99314.89;79542;1300;3011605;-65
2024/04/01 09:50:25;;;;;;;18.90;4.40;;;;;;;21.64;30.15;99317.38;78719;1298;3069800;-65
2024/04/01 09:52:51;;;;;;;14.00;3.70;;;;;;;21.83;29.95;99311.38;80107;1298;3013042;-64
2024/04/01 09:55:22;;;;;;;16.40;5.00;;;;;;;21.69;29.96;99314.34;79676;1294;3011608;-62
2024/04/01 09:58:32;;;;;;;17.50;4.10;;;;;;;21.53;30.09;99313.78;80184;1299;3053119;-61
2024/04/01 10:01:25;;;;;;;23.70;5.40;;;;;;;21.53;30.29;99321.38;77680;1304;3050186;-63
2024/04/01 10:04:08;;;;;;;18.70;4.60;;;;;;;21.49;30.04;99324.14;78218;1298;3053249;-63
2024/04/01 10:07:10;;;;;;;23.80;5.10;;;;;;;21.60;30.09;99314.23;78207;1298;3052648;-62
2024/04/01 10:10:03;;;;;;;18.90;4.60;;;;;;;21.59;29.97;99319.71;78352;1298;3068975;-63
2024/04/01 10:12:43;;;;;;;15.60;4.00;;;;;;;21.60;29.88;99313.91;78171;1295;3052304;-62
2024/04/01 10:15:41;;;;;;;15.70;4.70;;;;;;;21.65;30.07;99311.27;78147;1298;3056640;-61
2024/04/01 10:18:27;;;;;;;25.30;3.90;;;;;;;21.69;29.99;99314.50;78141;1301;3048924;-64
2024/04/01 10:21:10;;;;;;;15.00;4.40;;;;;;;21.53;30.44;99313.73;78066;1296;3054418;-63
2024/04/01 10:23:54;;;;;;;22.70;4.90;;;;;;;21.56;30.52;99309.98;78056;1298;3049798;-62
2024/04/01 10:26:31;;;;;;;12.00;3.80;;;;;;;21.66;30.70;99314.70;78506;1298;3052826;-63
2024/04/01 10:29:17;;;;;;;15.90;3.60;;;;;;;21.74;30.97;99305.95;78443;1298;3053000;-63
2024/04/01 10:31:54;;;;;;;19.50;3.70;;;;;;;21.64;31.45;99302.60;78286;1296;3069010;-62
2024/04/01 10:34:34;;;;;;;14.10;3.90;;;;;;;21.68;31.85;99298.59;78308;1294;3052825;-62
2024/04/01 10:37:23;;;;;;;9.50;3.80;;;;;;;21.75;31.66;99296.70;78197;1298;3056983;-63
2024/04/01 10:40:04;;;;;;;13.70;3.90;;;;;;;21.65;31.81;99294.62;78385;1298;3048739;-63
2024/04/01 10:43:04;;;;;;;13.30;3.40;;;;;;;21.63;31.90;99293.42;78290;1298;3053710;-63
2024/04/01 10:45:38;;;;;;;20.70;3.60;;;;;;;21.64;31.99;99293.09;78110;1298;3050875;-64
2024/04/01 10:48:18;;;;;;;13.80;3.20;;;;;;;21.64;32.04;99289.71;79446;1298;3011714;-65
2024/04/01 10:51:08;;;;;;;12.80;3.60;;;;;;;21.68;32.02;99285.73;78212;1298;3052858;-64
2024/04/01 10:54:12;;;;;;;14.40;3.60;;;;;;;21.74;32.03;99282.44;78253;1298;3068929;-64
2024/04/01 10:57:27;;;;;;;17.70;3.80;;;;;;;21.64;32.46;99281.85;78088;1298;3053164;-65
2024/04/01 11:00:05;;;;;;;18.20;3.40;;;;;;;21.85;32.30;99281.25;77949;1299;3056733;-64
2024/04/01 11:03:12;;;;;;;12.40;3.80;;;;;;;21.83;32.47;99282.45;78117;1295;3049734;-63
2024/04/01 11:05:49;;;;;;;9.20;3.70;;;;;;;21.90;32.77;99284.45;78174;1298;3053306;-64
2024/04/01 11:08:33;;;;;;;23.60;3.90;;;;;;;21.79;33.09;99282.27;78486;1295;3049826;-66
2024/04/01 11:11:19;;;;;;;21.10;3.00;;;;;;;21.68;33.46;99278.08;78247;1298;3052761;-63
2024/04/01 11:13:48;;;;;;;16.00;2.60;;;;;;;21.82;33.18;99269.95;78132;1301;3052805;-65
2024/04/01 11:16:14;;;;;;;15.00;3.10;;;;;;;21.85;33.41;99268.21;79496;1294;3015974;-64
2024/04/01 11:18:50;;;;;;;15.80;2.30;;;;;;;21.77;33.83;99265.98;79277;1295;3012212;-64
2024/04/01 11:21:35;;;;;;;11.30;2.50;;;;;;;21.92;33.66;99263.15;78215;1298;3049310;-64
2024/04/01 11:24:21;;;;;;;11.30;2.00;;;;;;;21.76;33.83;99267.56;78231;1298;3053524;-63